createdAt,value
2022-08-31T00:00:13.610Z,1.17
2022-08-31T00:01:34.748Z,1.17
2022-08-31T00:02:57.404Z,1.02
2022-08-31T00:04:03.687Z,1.17
2022-08-31T00:05:07.258Z,1.15
2022-08-31T00:06:09.983Z,1.15
2022-08-31T00:07:12.559Z,1.05
2022-08-31T00:08:15.845Z,1.33
2022-08-31T00:09:18.520Z,1.40
2022-08-31T00:10:31.620Z,1.80
2022-08-31T00:11:37.538Z,1.08
2022-08-31T00:12:45.210Z,1.10
2022-08-31T00:13:47.765Z,1.17
2022-08-31T00:14:51.532Z,1.38
2022-08-31T00:15:55.871Z,1.20
2022-08-31T00:16:58.467Z,1.15
2022-08-31T00:18:01.435Z,1.88
2022-08-31T00:19:05.350Z,1.45
2022-08-31T00:20:09.745Z,1.02
2022-08-31T00:21:32.619Z,1.08
2022-08-31T00:22:35.421Z,1.23
2022-08-31T00:23:38.248Z,0.95
2022-08-31T00:24:40.842Z,1.00
2022-08-31T00:25:45.487Z,1.50
2022-08-31T00:26:48.191Z,1.30
2022-08-31T00:27:51.104Z,1.75
2022-08-31T00:28:53.838Z,1.27
2022-08-31T00:29:56.535Z,0.98
2022-08-31T00:30:59.267Z,1.00
2022-08-31T00:32:01.995Z,1.58
2022-08-31T00:33:05.568Z,1.17
2022-08-31T00:34:08.552Z,1.88
2022-08-31T00:35:11.405Z,1.65
2022-08-31T00:36:14.632Z,1.10
2022-08-31T00:37:17.209Z,1.48
2022-08-31T00:38:19.722Z,1.10
2022-08-31T00:39:22.601Z,0.98
2022-08-31T00:40:26.181Z,1.20
2022-08-31T00:41:31.450Z,1.30
2022-08-31T00:42:34.190Z,1.27
2022-08-31T00:43:53.354Z,0.93
2022-08-31T00:44:55.918Z,1.00
2022-08-31T00:45:58.589Z,1.00
2022-08-31T00:47:01.698Z,1.20
2022-08-31T00:48:04.536Z,0.90
2022-08-31T00:49:14.035Z,1.00
2022-08-31T00:50:17.623Z,0.98
2022-08-31T00:51:20.332Z,1.05
2022-08-31T00:52:36.438Z,1.00
2022-08-31T00:53:40.526Z,1.25
2022-08-31T00:54:50.371Z,1.10
2022-08-31T00:55:53.148Z,1.27
2022-08-31T00:56:55.771Z,1.30
2022-08-31T00:58:01.450Z,1.13
2022-08-31T00:59:04.424Z,1.10
2022-08-31T01:00:11.492Z,1.30
2022-08-31T01:01:15.078Z,1.10
2022-08-31T01:02:18.828Z,1.10
2022-08-31T01:03:22.996Z,1.42
2022-08-31T01:04:25.859Z,1.17
2022-08-31T01:05:29.954Z,1.17
2022-08-31T01:06:33.090Z,1.23
2022-08-31T01:07:36.325Z,1.20
2022-08-31T01:08:39.064Z,1.20
2022-08-31T01:09:52.700Z,1.55
2022-08-31T01:11:00.009Z,1.45
2022-08-31T01:12:03.870Z,1.52
2022-08-31T01:13:06.565Z,1.15
2022-08-31T01:14:09.492Z,1.60
2022-08-31T01:15:12.955Z,1.80
2022-08-31T01:16:23.058Z,1.48
2022-08-31T01:17:25.930Z,1.30
2022-08-31T01:18:28.884Z,1.00
2022-08-31T01:19:38.657Z,1.38
2022-08-31T01:20:48.781Z,1.38
2022-08-31T01:22:00.229Z,1.80
2022-08-31T01:24:35.835Z,0.93
2022-08-31T01:25:40.499Z,1.10
2022-08-31T01:26:43.474Z,1.63
2022-08-31T01:27:59.788Z,1.30
2022-08-31T01:29:05.288Z,1.27
2022-08-31T01:30:11.886Z,1.00
2022-08-31T01:31:26.543Z,1.90
2022-08-31T01:32:30.656Z,1.10
2022-08-31T01:33:36.792Z,0.90
2022-08-31T01:34:39.989Z,1.48
2022-08-31T01:35:45.200Z,1.48
2022-08-31T01:36:48.420Z,1.30
2022-08-31T01:37:51.847Z,1.10
2022-08-31T01:38:54.549Z,1.17
2022-08-31T01:39:57.391Z,1.73
2022-08-31T01:41:03.796Z,1.20
2022-08-31T01:42:06.685Z,1.08
2022-08-31T01:43:09.805Z,0.93
2022-08-31T01:44:18.743Z,1.15
2022-08-31T01:45:21.391Z,1.10
2022-08-31T01:46:24.576Z,1.20
2022-08-31T01:47:27.395Z,1.08
2022-08-31T01:48:30.858Z,1.23
2022-08-31T01:49:33.442Z,1.20
2022-08-31T01:50:36.266Z,1.77
2022-08-31T01:51:39.450Z,1.42
2022-08-31T01:52:42.135Z,1.80
2022-08-31T01:53:48.420Z,1.05
2022-08-31T01:54:51.462Z,1.42
2022-08-31T01:55:54.137Z,1.05
2022-08-31T01:56:56.954Z,1.13
2022-08-31T01:58:16.401Z,1.67
2022-08-31T01:59:39.268Z,1.05
2022-08-31T02:00:56.826Z,1.48
2022-08-31T02:01:59.896Z,1.08
2022-08-31T02:03:05.190Z,1.00
2022-08-31T02:04:09.814Z,1.10
2022-08-31T02:05:14.479Z,1.70
2022-08-31T02:06:17.215Z,0.95
2022-08-31T02:07:19.973Z,1.55
2022-08-31T02:08:22.705Z,1.38
2022-08-31T02:09:26.777Z,1.63
2022-08-31T02:10:29.753Z,1.20
2022-08-31T02:11:32.545Z,1.27
2022-08-31T02:12:35.138Z,1.13
2022-08-31T02:13:38.070Z,0.95
2022-08-31T02:14:40.781Z,1.30
2022-08-31T02:15:43.413Z,1.50
2022-08-31T02:16:46.453Z,1.73
2022-08-31T02:17:49.252Z,1.20
2022-08-31T02:18:55.814Z,1.02
2022-08-31T02:19:58.489Z,1.25
2022-08-31T02:21:01.108Z,1.13
2022-08-31T02:22:04.006Z,1.30
2022-08-31T02:23:06.547Z,1.30
2022-08-31T02:24:12.322Z,1.52
2022-08-31T02:25:16.412Z,1.30
2022-08-31T02:26:19.950Z,1.30
2022-08-31T02:27:22.636Z,1.27
2022-08-31T02:28:25.867Z,1.10
2022-08-31T02:29:29.053Z,1.25
2022-08-31T02:30:31.917Z,1.13
2022-08-31T02:31:35.103Z,1.35
2022-08-31T02:32:37.954Z,1.35
2022-08-31T02:33:40.620Z,1.58
2022-08-31T02:34:43.296Z,1.40
2022-08-31T02:35:47.157Z,1.23
2022-08-31T02:36:56.724Z,1.60
2022-08-31T02:37:59.561Z,1.35
2022-08-31T02:39:02.465Z,1.38
2022-08-31T02:40:11.000Z,1.20
2022-08-31T02:41:17.700Z,1.40
2022-08-31T02:42:20.354Z,1.00
2022-08-31T02:43:24.799Z,1.65
2022-08-31T02:44:29.843Z,1.23
2022-08-31T02:45:32.492Z,1.25
2022-08-31T02:46:43.197Z,0.98
2022-08-31T02:48:15.194Z,1.15
2022-08-31T02:49:18.180Z,1.05
2022-08-31T02:50:21.166Z,1.50
2022-08-31T02:51:23.854Z,1.20
2022-08-31T02:52:26.560Z,1.08
2022-08-31T02:53:30.107Z,1.40
2022-08-31T02:54:32.844Z,0.95
2022-08-31T02:55:35.514Z,1.15
2022-08-31T02:56:38.594Z,1.50
2022-08-31T02:57:41.299Z,1.02
2022-08-31T02:58:46.204Z,1.45
2022-08-31T02:59:49.063Z,1.08
2022-08-31T03:00:52.438Z,1.08
2022-08-31T03:01:55.736Z,1.83
2022-08-31T03:02:59.160Z,1.02
2022-08-31T03:04:02.990Z,1.00
2022-08-31T03:05:08.789Z,1.17
2022-08-31T03:06:12.655Z,1.25
2022-08-31T03:07:15.558Z,1.05
2022-08-31T03:08:20.720Z,1.00
2022-08-31T03:09:25.589Z,0.98
2022-08-31T03:10:28.472Z,1.05
2022-08-31T03:11:32.344Z,0.70
2022-08-31T03:12:35.947Z,1.15
2022-08-31T03:13:39.452Z,1.35
2022-08-31T03:14:42.102Z,1.25
2022-08-31T03:15:44.803Z,1.38
2022-08-31T03:16:51.881Z,0.90
2022-08-31T03:17:55.905Z,1.10
2022-08-31T03:18:59.570Z,1.10
2022-08-31T03:20:05.517Z,0.93
2022-08-31T03:21:08.233Z,1.17
2022-08-31T03:22:13.501Z,1.38
2022-08-31T03:23:16.163Z,1.23
2022-08-31T03:24:19.289Z,1.15
2022-08-31T03:25:24.879Z,1.02
2022-08-31T03:26:28.076Z,1.30
2022-08-31T03:27:30.854Z,1.33
2022-08-31T03:28:35.017Z,0.70
2022-08-31T03:29:58.151Z,1.50
2022-08-31T03:31:07.575Z,1.10
2022-08-31T03:32:10.137Z,1.10
2022-08-31T03:33:14.622Z,1.58
2022-08-31T03:34:18.074Z,1.25
2022-08-31T03:35:23.168Z,0.85
2022-08-31T03:36:26.364Z,1.20
2022-08-31T03:37:29.048Z,1.00
2022-08-31T03:38:35.208Z,1.30
2022-08-31T03:39:39.098Z,1.05
2022-08-31T03:40:43.862Z,0.93
2022-08-31T03:41:46.513Z,0.95
2022-08-31T03:42:50.158Z,0.82
2022-08-31T03:43:52.918Z,0.90
2022-08-31T03:44:55.609Z,1.45
2022-08-31T03:46:06.130Z,1.27
2022-08-31T03:47:15.074Z,1.10
2022-08-31T03:48:17.842Z,1.10
2022-08-31T03:49:22.492Z,0.88
2022-08-31T03:50:44.553Z,1.20
2022-08-31T03:51:53.686Z,1.30
2022-08-31T03:52:58.308Z,1.10
2022-08-31T03:54:01.056Z,0.98
2022-08-31T03:55:04.485Z,1.15
2022-08-31T03:56:08.883Z,0.98
2022-08-31T03:57:16.548Z,1.13
2022-08-31T03:58:19.194Z,0.82
2022-08-31T03:59:21.971Z,0.90
2022-08-31T04:00:44.526Z,1.02
2022-08-31T04:02:02.354Z,0.98
2022-08-31T04:03:24.383Z,0.98
2022-08-31T04:04:50.518Z,1.10
2022-08-31T04:06:12.598Z,1.40
2022-08-31T04:07:42.300Z,0.80
2022-08-31T04:09:24.109Z,0.85
2022-08-31T04:10:51.693Z,0.93
2022-08-31T04:12:09.781Z,1.13
2022-08-31T04:13:18.479Z,1.27
2022-08-31T04:14:46.823Z,1.05
2022-08-31T04:16:12.297Z,1.10
2022-08-31T04:17:33.739Z,1.40
2022-08-31T04:18:56.213Z,0.68
2022-08-31T04:19:59.105Z,1.10
2022-08-31T04:21:17.985Z,1.23
2022-08-31T04:22:20.609Z,1.20
2022-08-31T04:23:43.515Z,0.93
2022-08-31T04:24:46.154Z,1.13
2022-08-31T04:25:48.708Z,1.10
2022-08-31T04:26:52.788Z,1.15
2022-08-31T04:27:56.754Z,1.30
2022-08-31T04:29:02.322Z,0.80
2022-08-31T04:30:08.592Z,1.02
2022-08-31T04:31:11.265Z,1.02
2022-08-31T04:32:17.110Z,1.10
2022-08-31T04:33:20.130Z,1.38
2022-08-31T04:34:22.992Z,0.90
2022-08-31T04:35:25.771Z,1.17
2022-08-31T04:36:29.176Z,0.98
2022-08-31T04:37:32.024Z,1.15
2022-08-31T04:38:35.305Z,1.42
2022-08-31T04:39:50.948Z,0.93
2022-08-31T04:40:54.724Z,1.58
2022-08-31T04:41:57.636Z,1.00
2022-08-31T04:43:01.869Z,1.05
2022-08-31T04:44:04.876Z,1.10
2022-08-31T04:45:08.236Z,1.10
2022-08-31T04:46:11.148Z,0.98
2022-08-31T04:47:13.869Z,1.13
2022-08-31T04:48:17.034Z,1.45
2022-08-31T04:49:19.649Z,1.50
2022-08-31T04:50:22.823Z,1.20
2022-08-31T04:51:44.716Z,0.80
2022-08-31T04:52:57.349Z,1.15
2022-08-31T04:54:09.439Z,0.90
2022-08-31T04:55:12.338Z,0.95
2022-08-31T04:56:18.531Z,1.02
2022-08-31T04:57:21.194Z,0.98
2022-08-31T04:58:23.927Z,0.98
2022-08-31T04:59:27.873Z,1.60
2022-08-31T05:00:51.634Z,0.80
2022-08-31T05:02:29.258Z,1.10
2022-08-31T05:03:55.441Z,0.95
2022-08-31T05:04:58.171Z,0.75
2022-08-31T05:06:00.856Z,1.35
2022-08-31T05:07:03.557Z,1.23
2022-08-31T05:08:07.635Z,1.48
2022-08-31T05:09:13.277Z,0.90
2022-08-31T05:10:19.293Z,1.63
2022-08-31T05:11:24.953Z,0.88
2022-08-31T05:12:28.076Z,1.00
2022-08-31T05:13:31.243Z,1.10
2022-08-31T05:14:35.847Z,1.10
2022-08-31T05:15:48.500Z,1.02
2022-08-31T05:16:57.431Z,0.80
2022-08-31T05:18:00.930Z,1.33
2022-08-31T05:19:06.425Z,0.82
2022-08-31T05:20:09.487Z,0.95
2022-08-31T05:21:13.848Z,1.00
2022-08-31T05:22:16.443Z,1.10
2022-08-31T05:23:20.858Z,1.08
2022-08-31T05:24:23.795Z,1.40
2022-08-31T05:25:27.614Z,1.10
2022-08-31T05:26:33.013Z,1.02
2022-08-31T05:27:36.464Z,1.10
2022-08-31T05:28:39.345Z,1.35
2022-08-31T05:29:42.144Z,1.75
2022-08-31T05:31:03.639Z,1.08
2022-08-31T05:32:12.173Z,1.15
2022-08-31T05:33:16.933Z,1.30
2022-08-31T05:34:21.595Z,1.05
2022-08-31T05:35:24.565Z,1.38
2022-08-31T05:36:27.095Z,1.50
2022-08-31T05:37:29.778Z,1.10
2022-08-31T05:38:34.115Z,1.80
2022-08-31T05:39:38.870Z,1.75
2022-08-31T05:40:41.645Z,1.30
2022-08-31T05:41:46.253Z,1.50
2022-08-31T05:42:49.078Z,1.33
2022-08-31T05:43:51.768Z,2.13
2022-08-31T05:44:54.801Z,1.60
2022-08-31T05:45:58.088Z,1.35
2022-08-31T05:47:04.046Z,1.13
2022-08-31T05:48:07.323Z,1.13
2022-08-31T05:49:12.054Z,1.15
2022-08-31T05:50:15.138Z,1.48
2022-08-31T05:51:19.335Z,1.33
2022-08-31T05:52:24.998Z,1.30
2022-08-31T05:53:29.646Z,1.17
2022-08-31T05:54:36.123Z,0.90
2022-08-31T05:55:39.860Z,1.15
2022-08-31T05:56:42.985Z,1.08
2022-08-31T05:57:46.728Z,0.75
2022-08-31T05:58:50.043Z,0.70
2022-08-31T05:59:52.920Z,1.10
2022-08-31T06:00:57.277Z,0.90
2022-08-31T06:02:31.915Z,0.88
2022-08-31T06:03:35.210Z,0.70
2022-08-31T06:04:40.062Z,0.90
2022-08-31T06:05:43.387Z,0.32
2022-08-31T06:06:45.975Z,0.88
2022-08-31T06:07:51.103Z,0.75
2022-08-31T06:08:55.249Z,0.60
2022-08-31T06:09:57.917Z,0.50
2022-08-31T06:11:00.839Z,0.82
2022-08-31T06:12:04.123Z,1.10
2022-08-31T06:13:06.901Z,0.60
2022-08-31T06:14:10.778Z,0.75
2022-08-31T06:15:15.762Z,0.60
2022-08-31T06:16:19.727Z,0.82
2022-08-31T06:17:24.371Z,0.75
2022-08-31T06:18:28.080Z,0.70
2022-08-31T06:19:33.325Z,0.77
2022-08-31T06:20:38.092Z,0.65
2022-08-31T06:21:50.615Z,0.63
2022-08-31T06:22:58.881Z,0.70
2022-08-31T06:24:12.965Z,0.70
2022-08-31T06:25:19.394Z,0.90
2022-08-31T06:26:23.319Z,0.70
2022-08-31T06:27:27.578Z,0.68
2022-08-31T06:28:32.694Z,0.73
2022-08-31T06:29:35.381Z,0.70
2022-08-31T06:30:55.050Z,0.82
2022-08-31T06:32:00.338Z,0.80
2022-08-31T06:33:05.038Z,1.13
2022-08-31T06:34:21.866Z,0.68
2022-08-31T06:35:24.618Z,0.80
2022-08-31T06:36:39.604Z,0.90
2022-08-31T06:37:53.243Z,0.88
2022-08-31T06:39:18.727Z,0.80
2022-08-31T06:40:28.703Z,0.77
2022-08-31T06:41:52.768Z,0.57
2022-08-31T06:43:15.807Z,0.82
2022-08-31T06:44:44.479Z,0.90
2022-08-31T06:45:51.738Z,0.68
2022-08-31T06:47:13.371Z,0.50
2022-08-31T06:48:17.538Z,0.70
2022-08-31T06:49:20.572Z,0.60
2022-08-31T06:50:23.851Z,0.50
2022-08-31T06:51:36.474Z,0.60
2022-08-31T06:52:39.242Z,0.70
2022-08-31T06:54:21.404Z,0.75
2022-08-31T06:55:44.636Z,0.45
2022-08-31T06:57:16.931Z,0.60
2022-08-31T06:58:37.994Z,0.65
2022-08-31T06:59:40.651Z,0.73
2022-08-31T07:01:12.001Z,0.70
2022-08-31T07:02:32.418Z,0.70
2022-08-31T07:03:37.516Z,0.45
2022-08-31T07:04:40.295Z,0.80
2022-08-31T07:05:42.898Z,0.65
2022-08-31T07:06:46.233Z,0.75
2022-08-31T07:07:48.995Z,0.73
2022-08-31T07:08:57.376Z,0.57
2022-08-31T07:10:00.644Z,0.60
2022-08-31T07:11:04.196Z,0.57
2022-08-31T07:12:07.780Z,0.60
2022-08-31T07:13:10.462Z,0.70
2022-08-31T07:14:17.439Z,0.80
2022-08-31T07:15:20.201Z,0.75
2022-08-31T07:16:24.318Z,0.38
2022-08-31T07:17:27.194Z,0.85
2022-08-31T07:18:30.285Z,0.70
2022-08-31T07:19:32.826Z,0.50
2022-08-31T07:20:39.067Z,0.88
2022-08-31T07:21:47.321Z,0.80
2022-08-31T07:22:51.336Z,0.98
2022-08-31T07:24:08.607Z,0.70
2022-08-31T07:25:11.414Z,0.70
2022-08-31T07:26:18.034Z,0.43
2022-08-31T07:27:20.875Z,0.63
2022-08-31T07:28:33.893Z,0.38
2022-08-31T07:29:40.934Z,0.47
2022-08-31T07:30:50.162Z,0.63
2022-08-31T07:31:55.817Z,0.47
2022-08-31T07:32:58.608Z,0.40
2022-08-31T07:34:03.753Z,0.93
2022-08-31T07:35:07.122Z,0.40
2022-08-31T07:36:59.777Z,0.35
2022-08-31T07:38:25.641Z,0.50
2022-08-31T07:39:48.381Z,0.40
2022-08-31T07:41:09.775Z,0.50
2022-08-31T07:42:14.706Z,0.52
2022-08-31T07:43:17.818Z,0.47
2022-08-31T07:44:23.264Z,0.40
2022-08-31T07:45:29.403Z,0.50
2022-08-31T07:46:36.183Z,0.20
2022-08-31T07:47:45.425Z,0.30
2022-08-31T07:48:48.591Z,0.40
2022-08-31T07:50:27.725Z,0.22
2022-08-31T07:51:51.061Z,0.28
2022-08-31T07:53:16.525Z,0.35
2022-08-31T07:54:28.283Z,0.20
2022-08-31T07:55:45.892Z,0.40
2022-08-31T07:57:06.416Z,0.13
2022-08-31T07:58:15.550Z,0.20
2022-08-31T07:59:21.821Z,0.30
2022-08-31T08:00:27.741Z,0.45
2022-08-31T08:01:32.250Z,0.35
2022-08-31T08:02:40.357Z,0.30
2022-08-31T08:03:46.626Z,0.20
2022-08-31T08:05:21.228Z,0.38
2022-08-31T08:06:56.059Z,0.25
2022-08-31T08:08:31.968Z,0.20
2022-08-31T08:09:49.572Z,0.30
2022-08-31T08:11:18.194Z,0.25
2022-08-31T08:13:52.322Z,0.20
2022-08-31T08:14:59.211Z,0.30
2022-08-31T08:16:25.621Z,0.40
2022-08-31T08:18:04.978Z,0.32
2022-08-31T08:19:17.816Z,0.30
2022-08-31T08:20:37.486Z,0.20
2022-08-31T08:21:43.640Z,0.20
2022-08-31T08:22:54.133Z,0.40
2022-08-31T08:24:24.348Z,0.20
2022-08-31T08:25:47.752Z,0.20
2022-08-31T08:26:56.338Z,0.30
2022-08-31T08:29:41.600Z,0.20
2022-08-31T08:30:54.385Z,0.20
2022-08-31T08:31:58.643Z,0.40
2022-08-31T08:33:03.451Z,0.20
2022-08-31T08:34:07.606Z,0.40
2022-08-31T08:35:12.515Z,0.30
2022-08-31T08:36:18.427Z,0.30
2022-08-31T08:37:41.121Z,0.22
2022-08-31T08:38:48.154Z,0.40
2022-08-31T08:39:52.195Z,0.20
2022-08-31T08:41:02.406Z,0.15
2022-08-31T08:42:08.709Z,0.25
2022-08-31T08:43:15.987Z,0.25
2022-08-31T08:44:28.680Z,0.30
2022-08-31T08:45:32.166Z,0.20
2022-08-31T08:46:40.605Z,0.20
2022-08-31T08:47:49.964Z,0.30
2022-08-31T08:48:55.696Z,0.30
2022-08-31T08:50:05.292Z,0.20
2022-08-31T08:51:20.365Z,0.15
2022-08-31T08:52:41.620Z,0.47
2022-08-31T08:53:47.199Z,0.20
2022-08-31T08:55:06.484Z,0.30
2022-08-31T08:56:31.851Z,0.32
2022-08-31T08:57:37.027Z,0.47
2022-08-31T08:58:45.325Z,0.25
2022-08-31T08:59:51.157Z,0.40
2022-08-31T09:00:55.097Z,0.20
2022-08-31T09:02:02.166Z,0.38
2022-08-31T09:03:11.442Z,0.30
2022-08-31T09:04:33.469Z,0.30
2022-08-31T09:05:40.349Z,0.30
2022-08-31T09:07:43.001Z,0.30
2022-08-31T09:09:08.700Z,0.40
2022-08-31T09:10:35.981Z,0.20
2022-08-31T09:11:46.701Z,0.20
2022-08-31T09:13:03.265Z,0.20
2022-08-31T09:14:21.155Z,0.35
2022-08-31T09:15:42.290Z,0.20
2022-08-31T09:16:56.338Z,0.20
2022-08-31T09:18:26.480Z,0.20
2022-08-31T09:19:55.674Z,0.20
2022-08-31T09:21:27.455Z,0.57
2022-08-31T09:22:50.284Z,0.30
2022-08-31T09:24:11.027Z,0.30
2022-08-31T09:25:58.514Z,0.30
2022-08-31T09:27:18.698Z,0.30
2022-08-31T09:28:44.864Z,0.30
2022-08-31T09:30:08.020Z,0.40
2022-08-31T09:31:39.278Z,0.20
2022-08-31T09:32:56.293Z,0.30
2022-08-31T09:33:59.337Z,0.20
2022-08-31T09:35:23.906Z,0.30
2022-08-31T09:36:33.729Z,0.43
2022-08-31T09:37:45.165Z,0.40
2022-08-31T09:38:48.421Z,0.47
2022-08-31T09:39:52.927Z,0.32
2022-08-31T09:40:55.779Z,0.22
2022-08-31T09:42:04.172Z,0.30
2022-08-31T09:43:22.820Z,0.40
2022-08-31T09:44:33.985Z,0.40
2022-08-31T09:45:42.378Z,0.47
2022-08-31T09:46:50.552Z,0.37
2022-08-31T09:47:58.473Z,0.30
2022-08-31T09:49:03.227Z,0.22
2022-08-31T09:50:09.382Z,0.30
2022-08-31T09:51:22.292Z,0.17
2022-08-31T09:52:47.044Z,0.40
2022-08-31T09:54:08.334Z,0.35
2022-08-31T09:55:15.009Z,0.22
2022-08-31T09:56:20.913Z,0.30
2022-08-31T09:58:04.534Z,0.30
2022-08-31T09:59:07.432Z,0.25
2022-08-31T10:00:15.317Z,0.40
2022-08-31T10:01:38.833Z,0.45
2022-08-31T10:02:43.556Z,0.30
2022-08-31T10:03:47.782Z,0.25
2022-08-31T10:04:58.385Z,0.40
2022-08-31T10:06:01.257Z,0.20
2022-08-31T10:07:24.992Z,0.40
2022-08-31T10:08:39.599Z,0.30
2022-08-31T10:09:48.314Z,0.40
2022-08-31T10:10:51.625Z,0.40
2022-08-31T10:11:57.782Z,0.50
2022-08-31T10:13:10.506Z,0.65
2022-08-31T10:14:29.497Z,0.30
2022-08-31T10:15:53.788Z,0.47
2022-08-31T10:17:05.461Z,0.40
2022-08-31T10:18:12.009Z,0.40
2022-08-31T10:19:30.493Z,0.30
2022-08-31T10:20:39.844Z,0.53
2022-08-31T10:21:54.651Z,0.28
2022-08-31T10:23:23.015Z,0.40
2022-08-31T10:24:46.381Z,0.38
2022-08-31T10:25:54.699Z,0.20
2022-08-31T10:27:32.374Z,0.30
2022-08-31T10:28:42.277Z,0.30
2022-08-31T10:30:00.153Z,0.30
2022-08-31T10:31:21.194Z,0.30
2022-08-31T10:32:53.980Z,0.30
2022-08-31T10:34:27.847Z,0.30
2022-08-31T10:35:37.452Z,0.20
2022-08-31T10:36:40.556Z,0.20
2022-08-31T10:38:08.299Z,0.22
2022-08-31T10:39:36.430Z,0.30
2022-08-31T10:41:01.437Z,0.20
2022-08-31T10:42:09.663Z,0.50
2022-08-31T10:43:17.734Z,0.38
2022-08-31T10:44:32.610Z,0.30
2022-08-31T10:45:40.835Z,0.20
2022-08-31T10:46:44.525Z,0.20
2022-08-31T10:47:49.205Z,0.22
2022-08-31T10:48:54.587Z,0.32
2022-08-31T10:49:59.345Z,0.30
2022-08-31T10:51:06.629Z,0.35
2022-08-31T10:52:29.564Z,0.30
2022-08-31T10:54:06.850Z,0.20
2022-08-31T10:55:18.209Z,0.15
2022-08-31T10:56:59.149Z,0.10
2022-08-31T10:58:11.946Z,0.30
2022-08-31T10:59:25.178Z,0.20
2022-08-31T11:00:48.908Z,0.40
2022-08-31T11:01:54.628Z,0.30
2022-08-31T11:03:35.668Z,0.40
2022-08-31T11:04:47.289Z,0.30
2022-08-31T11:06:10.412Z,0.35
2022-08-31T11:07:58.105Z,0.40
2022-08-31T11:09:15.870Z,0.40
2022-08-31T11:10:25.053Z,0.30
2022-08-31T11:11:43.778Z,0.38
2022-08-31T11:12:52.220Z,0.28
2022-08-31T11:14:27.055Z,0.40
2022-08-31T11:15:32.706Z,0.30
2022-08-31T11:16:49.606Z,0.30
2022-08-31T11:18:13.651Z,0.25
2022-08-31T11:19:16.309Z,0.20
2022-08-31T11:20:34.666Z,0.30
2022-08-31T11:22:05.691Z,0.10
2022-08-31T11:23:22.661Z,0.25
2022-08-31T11:24:37.101Z,0.30
2022-08-31T11:25:58.942Z,0.57
2022-08-31T11:27:14.533Z,0.55
2022-08-31T11:28:34.888Z,0.30
2022-08-31T11:29:46.450Z,0.38
2022-08-31T11:30:50.867Z,0.30
2022-08-31T11:31:55.197Z,0.43
2022-08-31T11:33:09.385Z,0.55
2022-08-31T11:34:26.445Z,0.30
2022-08-31T11:35:56.075Z,0.40
2022-08-31T11:37:01.171Z,0.47
2022-08-31T11:38:03.975Z,0.40
2022-08-31T11:39:08.431Z,0.40
2022-08-31T11:40:11.429Z,0.30
2022-08-31T11:41:35.911Z,0.40
2022-08-31T11:42:38.609Z,0.50
2022-08-31T11:43:47.141Z,0.50
2022-08-31T11:45:14.877Z,0.47
2022-08-31T11:46:27.217Z,0.30
2022-08-31T11:47:30.252Z,0.35
2022-08-31T11:48:53.737Z,0.55
2022-08-31T11:50:02.435Z,0.30
2022-08-31T11:51:07.469Z,0.32
2022-08-31T11:52:29.295Z,0.30
2022-08-31T11:53:35.979Z,0.40
2022-08-31T11:54:42.283Z,0.32
2022-08-31T11:55:49.473Z,0.40
2022-08-31T11:56:54.969Z,0.20
2022-08-31T11:58:07.607Z,0.30
2022-08-31T11:59:34.084Z,0.55
2022-08-31T12:01:02.992Z,0.40
2022-08-31T12:02:21.073Z,0.45
2022-08-31T12:03:35.258Z,0.38
2022-08-31T12:04:46.259Z,0.50
2022-08-31T12:05:57.976Z,0.40
2022-08-31T12:07:04.175Z,0.60
2022-08-31T12:08:09.245Z,0.40
2022-08-31T12:09:34.492Z,0.57
2022-08-31T12:10:46.060Z,0.40
2022-08-31T12:11:54.637Z,0.70
2022-08-31T12:13:19.613Z,0.50
2022-08-31T12:14:56.933Z,0.30
2022-08-31T12:16:15.107Z,0.40
2022-08-31T12:17:22.909Z,0.40
2022-08-31T12:18:46.658Z,0.50
2022-08-31T12:20:07.190Z,0.50
2022-08-31T12:21:37.461Z,0.22
2022-08-31T12:23:26.982Z,0.57
2022-08-31T12:24:38.857Z,0.40
2022-08-31T12:26:01.857Z,0.40
2022-08-31T12:27:16.277Z,0.50
2022-08-31T12:28:44.808Z,0.22
2022-08-31T12:29:47.633Z,0.30
2022-08-31T12:30:54.160Z,0.30
2022-08-31T12:32:10.887Z,0.38
2022-08-31T12:33:24.104Z,0.30
2022-08-31T12:34:27.806Z,0.25
2022-08-31T12:35:32.172Z,0.45
2022-08-31T12:36:36.653Z,0.32
2022-08-31T12:37:40.130Z,0.47
2022-08-31T12:38:43.094Z,0.40
2022-08-31T12:39:45.786Z,0.32
2022-08-31T12:40:50.991Z,0.30
2022-08-31T12:42:03.863Z,0.35
2022-08-31T12:43:10.941Z,0.30
2022-08-31T12:44:22.777Z,0.45
2022-08-31T12:45:40.878Z,0.40
2022-08-31T12:46:49.420Z,0.50
2022-08-31T12:48:12.288Z,0.30
2022-08-31T12:49:52.915Z,0.35
2022-08-31T12:51:34.190Z,0.40
2022-08-31T12:53:14.691Z,0.32
2022-08-31T12:54:20.578Z,0.35
2022-08-31T12:55:37.966Z,0.28
2022-08-31T12:56:58.982Z,0.30
2022-08-31T12:58:34.068Z,0.30
2022-08-31T12:59:59.903Z,0.30
2022-08-31T13:01:09.726Z,0.40
2022-08-31T13:02:13.700Z,0.40
2022-08-31T13:03:29.240Z,0.40
2022-08-31T13:04:32.080Z,0.40
2022-08-31T13:05:37.237Z,0.30
2022-08-31T13:06:42.007Z,0.30
2022-08-31T13:07:44.742Z,0.17
2022-08-31T13:08:50.397Z,0.60
2022-08-31T13:10:05.462Z,0.40
2022-08-31T13:11:15.025Z,0.28
2022-08-31T13:12:24.790Z,0.40
2022-08-31T13:13:29.469Z,0.20
2022-08-31T13:14:43.111Z,0.30
2022-08-31T13:15:46.070Z,0.35
2022-08-31T13:16:54.500Z,0.40
2022-08-31T13:17:57.612Z,0.40
2022-08-31T13:19:06.121Z,0.20
2022-08-31T13:20:09.166Z,0.47
2022-08-31T13:21:11.894Z,0.43
2022-08-31T13:22:17.238Z,0.40
2022-08-31T13:23:41.076Z,0.30
2022-08-31T13:24:53.483Z,0.38
2022-08-31T13:26:05.939Z,0.35
2022-08-31T13:27:17.297Z,0.30
2022-08-31T13:28:26.256Z,0.20
2022-08-31T13:29:29.239Z,0.32
2022-08-31T13:30:38.778Z,0.30
2022-08-31T13:31:52.680Z,0.20
2022-08-31T13:32:55.698Z,0.30
2022-08-31T13:34:03.612Z,0.30
2022-08-31T13:35:10.393Z,0.30
2022-08-31T13:36:34.899Z,0.40
2022-08-31T13:37:41.511Z,0.30
2022-08-31T13:38:50.305Z,0.35
2022-08-31T13:39:53.062Z,0.35
2022-08-31T13:40:56.031Z,0.50
2022-08-31T13:42:06.093Z,0.52
2022-08-31T13:43:10.032Z,0.38
2022-08-31T13:44:13.817Z,0.50
2022-08-31T13:45:27.124Z,0.32
2022-08-31T13:46:42.858Z,0.30
2022-08-31T13:47:57.386Z,0.40
2022-08-31T13:49:02.178Z,0.38
2022-08-31T13:50:18.863Z,0.22
2022-08-31T13:51:24.949Z,0.57
2022-08-31T13:52:30.175Z,0.40
2022-08-31T13:53:48.396Z,0.40
2022-08-31T13:55:06.834Z,0.40
2022-08-31T13:56:47.246Z,0.30
2022-08-31T13:58:04.819Z,0.60
2022-08-31T13:59:35.077Z,0.43
2022-08-31T14:00:44.152Z,0.25
2022-08-31T14:01:52.363Z,0.17
2022-08-31T14:03:01.205Z,0.38
2022-08-31T14:04:03.949Z,0.30
2022-08-31T14:05:08.687Z,0.50
2022-08-31T14:06:35.726Z,0.52
2022-08-31T14:07:43.903Z,0.30
2022-08-31T14:08:48.636Z,0.70
2022-08-31T14:10:08.005Z,0.70
2022-08-31T14:11:14.052Z,0.43
2022-08-31T14:12:37.273Z,0.60
2022-08-31T14:13:49.176Z,0.40
2022-08-31T14:14:51.882Z,0.45
2022-08-31T14:15:56.694Z,0.70
2022-08-31T14:17:03.583Z,0.50
2022-08-31T14:18:37.813Z,0.30
2022-08-31T14:19:42.920Z,0.45
2022-08-31T14:21:21.077Z,0.50
2022-08-31T14:22:32.429Z,0.60
2022-08-31T14:23:39.986Z,0.47
2022-08-31T14:24:43.834Z,0.50
2022-08-31T14:25:46.651Z,0.60
2022-08-31T14:26:49.255Z,0.60
2022-08-31T14:27:52.031Z,0.82
2022-08-31T14:28:57.547Z,0.60
2022-08-31T14:30:00.385Z,0.70
2022-08-31T14:31:12.315Z,0.55
2022-08-31T14:32:15.164Z,0.80
2022-08-31T14:33:17.774Z,0.70
2022-08-31T14:34:32.162Z,0.50
2022-08-31T14:35:34.712Z,0.28
2022-08-31T14:36:52.953Z,0.40
2022-08-31T14:37:55.731Z,0.40
2022-08-31T14:38:59.705Z,0.40
2022-08-31T14:40:07.430Z,0.40
2022-08-31T14:41:16.304Z,0.45
2022-08-31T14:42:26.601Z,0.43
2022-08-31T14:43:29.176Z,0.40
2022-08-31T14:44:34.537Z,0.40
2022-08-31T14:45:37.691Z,0.43
2022-08-31T14:46:42.196Z,0.30
2022-08-31T14:47:47.959Z,0.20
2022-08-31T14:48:50.558Z,0.30
2022-08-31T14:49:53.785Z,0.40
2022-08-31T14:50:56.335Z,0.35
2022-08-31T14:52:04.735Z,0.35
2022-08-31T14:53:10.358Z,0.45
2022-08-31T14:54:16.100Z,0.50
2022-08-31T14:55:19.986Z,0.43
2022-08-31T14:56:27.155Z,0.30
2022-08-31T14:57:32.198Z,0.63
2022-08-31T14:58:41.308Z,0.68
2022-08-31T14:59:47.301Z,0.80
2022-08-31T15:00:53.813Z,0.40
2022-08-31T15:01:57.950Z,0.65
2022-08-31T15:03:01.237Z,0.80
2022-08-31T15:04:04.952Z,0.60
2022-08-31T15:05:09.670Z,0.52
2022-08-31T15:06:13.687Z,0.90
2022-08-31T15:07:17.299Z,0.68
2022-08-31T15:08:31.061Z,0.80
2022-08-31T15:09:42.033Z,0.88
2022-08-31T15:10:46.367Z,0.60
2022-08-31T15:11:51.336Z,0.70
2022-08-31T15:12:54.243Z,0.60
2022-08-31T15:14:01.821Z,0.60
2022-08-31T15:15:05.862Z,0.57
2022-08-31T15:16:13.297Z,0.60
2022-08-31T15:17:19.575Z,0.70
2022-08-31T15:18:24.516Z,0.55
2022-08-31T15:19:28.032Z,0.70
2022-08-31T15:20:37.496Z,0.70
2022-08-31T15:21:52.165Z,0.70
2022-08-31T15:22:55.266Z,0.43
2022-08-31T15:23:57.966Z,0.35
2022-08-31T15:25:00.776Z,0.70
2022-08-31T15:26:06.477Z,0.50
2022-08-31T15:27:12.811Z,0.60
2022-08-31T15:28:15.948Z,0.45
2022-08-31T15:29:19.816Z,0.50
2022-08-31T15:30:23.120Z,0.60
2022-08-31T15:31:27.547Z,0.40
2022-08-31T15:32:30.515Z,0.60
2022-08-31T15:33:33.211Z,0.40